Time;durP1;ratioP1;P1;durP2;ratioP2;P2;SDS_P1;SDS_P2;PMS_P1;PMS_P2;Temp;Humidity;BMP_temperature;BMP_pressure;BME280_temperature;BME280_humidity;BME280_pressure;Samples;Min_cycle;Max_cycle;Signal;HPM_P1;HPM_P2
2021/04/23 00:00:17;;;;;;;19.38;8.45;;;;;;;;;;5053239;28;20040;-62
2021/04/23 00:03:03;;;;;;;13.63;6.18;;;;;;;;;;5052699;28;20511;-62
2021/04/23 00:05:50;;;;;;;17.77;5.30;;;;;;;;;;5052554;28;20072;-62
2021/04/23 00:08:35;;;;;;;14.07;6.00;;;;;;;;;;5053356;28;20049;-62
2021/04/23 00:11:22;;;;;;;14.27;5.65;;;;;;;;;;5052909;28;20049;-62
2021/04/23 00:14:08;;;;;;;21.35;6.20;;;;;;;;;;5051982;28;20143;-62
2021/04/23 00:16:53;;;;;;;12.63;5.35;;;;;;;;;;5053161;28;20053;-62
2021/04/23 00:19:38;;;;;;;11.25;5.78;;;;;;;;;;5052631;28;20574;-62
2021/04/23 00:22:24;;;;;;;14.13;5.57;;;;;;;;;;5052236;28;20060;-62
2021/04/23 00:25:09;;;;;;;11.98;6.60;;;;;;;;;;5053076;28;20041;-62
2021/04/23 00:27:55;;;;;;;11.48;4.93;;;;;;;;;;5094394;22;20037;-63
2021/04/23 00:30:50;;;;;;;16.35;5.72;;;;;;;;;;5052747;28;20510;-63
2021/04/23 00:33:36;;;;;;;12.45;5.93;;;;;;;;;;5061099;28;20041;-63
2021/04/23 00:36:22;;;;;;;16.08;5.63;;;;;;;;;;5072871;28;20051;-63
2021/04/23 00:39:08;;;;;;;11.35;5.38;;;;;;;;;;5072902;28;20131;-63
2021/04/23 00:41:53;;;;;;;19.40;5.72;;;;;;;;;;5072859;28;20048;-63
2021/04/23 00:44:39;;;;;;;12.05;5.57;;;;;;;;;;5070736;28;20056;-63
2021/04/23 00:47:24;;;;;;;13.98;5.28;;;;;;;;;;5072853;28;20471;-63
2021/04/23 00:50:09;;;;;;;12.80;5.80;;;;;;;;;;5072396;28;20048;-63
2021/04/23 00:52:56;;;;;;;12.00;5.43;;;;;;;;;;5057612;28;20048;-63
2021/04/23 00:55:41;;;;;;;17.40;5.43;;;;;;;;;;5072535;28;20059;-63
2021/04/23 00:58:27;;;;;;;15.65;6.55;;;;;;;;;;5072344;28;20052;-63
2021/04/23 01:01:15;;;;;;;15.07;4.88;;;;;;;;;;5072000;28;20098;-63
2021/04/23 01:04:00;;;;;;;15.60;5.30;;;;;;;;;;5070450;28;20487;-63
2021/04/23 01:06:45;;;;;;;9.23;4.95;;;;;;;;;;5072411;28;20057;-63
2021/04/23 01:09:31;;;;;;;14.02;5.97;;;;;;;;;;5071268;28;20139;-63
2021/04/23 01:12:16;;;;;;;16.25;5.25;;;;;;;;;;5072243;28;20055;-63
2021/04/23 01:15:01;;;;;;;9.50;5.50;;;;;;;;;;5070661;28;20107;-63
2021/04/23 01:17:47;;;;;;;13.38;5.88;;;;;;;;;;5057079;28;20143;-63
2021/04/23 01:20:32;;;;;;;13.32;5.53;;;;;;;;;;5072216;28;20050;-63
2021/04/23 01:23:17;;;;;;;14.45;5.80;;;;;;;;;;5057086;28;20083;-63
2021/04/23 01:26:02;;;;;;;13.35;5.25;;;;;;;;;;5070347;28;20045;-63
2021/04/23 01:28:49;;;;;;;10.65;5.68;;;;;;;;;;5071870;28;20131;-63
2021/04/23 01:31:37;;;;;;;16.00;5.18;;;;;;;;;;5071773;28;20134;-63
2021/04/23 01:34:25;;;;;;;18.55;5.47;;;;;;;;;;5071911;28;20056;-63
2021/04/23 01:37:13;;;;;;;20.02;6.00;;;;;;;;;;5070600;28;20052;-63
2021/04/23 01:39:58;;;;;;;21.60;6.10;;;;;;;;;;5071606;28;20052;-63
2021/04/23 01:42:44;;;;;;;14.52;5.82;;;;;;;;;;5072085;28;20059;-63
2021/04/23 01:45:29;;;;;;;15.73;5.68;;;;;;;;;;5070211;28;20068;-63
2021/04/23 01:48:15;;;;;;;16.88;6.28;;;;;;;;;;5071844;28;20048;-63
2021/04/23 01:51:00;;;;;;;18.52;6.00;;;;;;;;;;5051536;28;20124;-63
2021/04/23 01:53:46;;;;;;;15.35;5.57;;;;;;;;;;5051807;28;20041;-63
2021/04/23 01:56:31;;;;;;;15.85;5.72;;;;;;;;;;5061149;28;20431;-63
2021/04/23 01:59:17;;;;;;;19.02;5.50;;;;;;;;;;5069032;28;20045;-63
2021/04/23 02:02:02;;;;;;;20.38;6.47;;;;;;;;;;5071911;28;20049;-63
2021/04/23 02:04:48;;;;;;;14.90;6.38;;;;;;;;;;5071768;28;20135;-63
2021/04/23 02:07:33;;;;;;;17.65;5.80;;;;;;;;;;5069514;28;20084;-63
2021/04/23 02:10:20;;;;;;;13.63;5.45;;;;;;;;;;5070640;28;20126;-63
2021/04/23 02:13:06;;;;;;;15.25;5.20;;;;;;;;;;5056593;28;20048;-63
2021/04/23 02:15:51;;;;;;;17.60;6.10;;;;;;;;;;5071775;28;20521;-63
2021/04/23 02:18:36;;;;;;;13.80;5.70;;;;;;;;;;5071354;28;20037;-63
2021/04/23 02:21:22;;;;;;;18.25;5.68;;;;;;;;;;5070306;28;20179;-63
2021/04/23 02:24:07;;;;;;;12.93;6.13;;;;;;;;;;5075156;28;20197;-63
2021/04/23 02:26:52;;;;;;;12.68;5.25;;;;;;;;;;5075434;28;20044;-63
2021/04/23 02:29:37;;;;;;;21.05;6.97;;;;;;;;;;5072212;28;20040;-63
2021/04/23 02:32:23;;;;;;;17.98;5.50;;;;;;;;;;5035471;28;20069;-63
2021/04/23 02:35:09;;;;;;;14.82;5.68;;;;;;;;;;5035099;28;20196;-63
2021/04/23 02:37:55;;;;;;;12.38;5.35;;;;;;;;;;5035121;28;20053;-63
2021/04/23 02:40:40;;;;;;;16.38;5.00;;;;;;;;;;5047620;28;20048;-63
2021/04/23 02:43:27;;;;;;;14.00;5.35;;;;;;;;;;5074876;28;20429;-63
2021/04/23 02:46:13;;;;;;;18.02;6.70;;;;;;;;;;5075148;28;20040;-63
2021/04/23 02:48:58;;;;;;;14.43;5.35;;;;;;;;;;5074831;28;20126;-63
2021/04/23 02:51:44;;;;;;;21.15;5.97;;;;;;;;;;5073127;28;20135;-63
2021/04/23 02:54:29;;;;;;;14.38;5.60;;;;;;;;;;5074981;28;20052;-63
2021/04/23 02:57:17;;;;;;;20.38;5.72;;;;;;;;;;5074862;28;20057;-63
2021/04/23 03:00:04;;;;;;;19.08;5.22;;;;;;;;;;5074465;28;20116;-63
2021/04/23 03:02:51;;;;;;;12.48;4.75;;;;;;;;;;5073256;28;20044;-63
2021/04/23 03:05:36;;;;;;;19.20;5.35;;;;;;;;;;5074571;28;20131;-63
2021/04/23 03:08:22;;;;;;;21.35;5.70;;;;;;;;;;5074378;28;20063;-63
2021/04/23 03:11:11;;;;;;;19.70;5.00;;;;;;;;;;5072674;28;20048;-63
2021/04/23 03:13:57;;;;;;;15.45;5.63;;;;;;;;;;5074405;28;20048;-63
2021/04/23 03:16:43;;;;;;;14.98;5.28;;;;;;;;;;5074483;28;20051;-63
2021/04/23 03:19:28;;;;;;;13.68;4.93;;;;;;;;;;5074381;28;20052;-63
2021/04/23 03:22:13;;;;;;;16.67;5.47;;;;;;;;;;5072836;28;20043;-62
2021/04/23 03:24:59;;;;;;;13.52;5.28;;;;;;;;;;5072900;28;20479;-63
2021/04/23 03:27:44;;;;;;;14.15;4.65;;;;;;;;;;5074223;28;20400;-62
2021/04/23 03:30:31;;;;;;;14.82;4.15;;;;;;;;;;5073947;28;20045;-62
2021/04/23 03:33:18;;;;;;;13.90;5.25;;;;;;;;;;5070217;28;20052;-62
2021/04/23 03:36:09;;;;;;;14.77;4.88;;;;;;;;;;5074129;28;20331;-62
2021/04/23 03:38:54;;;;;;;15.40;4.60;;;;;;;;;;5073954;28;20049;-62
2021/04/23 03:41:40;;;;;;;14.45;4.10;;;;;;;;;;5073469;28;20053;-62
2021/04/23 03:44:25;;;;;;;15.63;4.18;;;;;;;;;;5058965;28;20080;-63
2021/04/23 03:47:10;;;;;;;10.43;4.82;;;;;;;;;;5073747;28;20403;-62
2021/04/23 03:49:56;;;;;;;13.05;4.80;;;;;;;;;;5073445;28;20351;-62
2021/04/23 03:52:41;;;;;;;11.43;3.83;;;;;;;;;;5068884;28;20049;-63
2021/04/23 03:55:28;;;;;;;14.18;5.28;;;;;;;;;;5073627;28;20048;-62
2021/04/23 03:58:14;;;;;;;12.23;4.47;;;;;;;;;;5073415;28;20049;-62
2021/04/23 04:01:00;;;;;;;12.68;4.18;;;;;;;;;;5058045;28;20044;-62
2021/04/23 04:03:46;;;;;;;18.73;4.80;;;;;;;;;;5072024;28;20044;-62
2021/04/23 04:06:31;;;;;;;16.63;4.68;;;;;;;;;;5073288;28;20490;-62
2021/04/23 04:09:17;;;;;;;13.70;4.65;;;;;;;;;;5073142;28;20036;-62
2021/04/23 04:12:02;;;;;;;9.73;4.20;;;;;;;;;;5073364;28;20048;-63
2021/04/23 04:14:48;;;;;;;18.77;4.38;;;;;;;;;;5056537;28;20047;-62
2021/04/23 04:17:33;;;;;;;17.50;4.95;;;;;;;;;;5073064;28;20490;-62
2021/04/23 04:20:18;;;;;;;13.13;4.47;;;;;;;;;;5073041;28;20411;-62
2021/04/23 04:23:03;;;;;;;10.88;3.80;;;;;;;;;;5072978;28;20055;-62
2021/04/23 04:25:50;;;;;;;53.53;8.75;;;;;;;;;;5073004;28;20040;-62
2021/04/23 04:28:35;;;;;;;17.40;4.35;;;;;;;;;;5072733;28;20417;-62
2021/04/23 04:31:20;;;;;;;17.75;5.53;;;;;;;;;;5072616;28;20044;-62
2021/04/23 04:34:06;;;;;;;16.27;4.28;;;;;;;;;;5070725;28;20167;-62
2021/04/23 04:36:51;;;;;;;10.23;4.28;;;;;;;;;;5072912;28;20135;-63
2021/04/23 04:39:37;;;;;;;16.02;4.47;;;;;;;;;;5072442;28;20086;-63
2021/04/23 04:42:22;;;;;;;14.88;3.95;;;;;;;;;;5072737;28;20056;-62
2021/04/23 04:45:09;;;;;;;10.60;4.13;;;;;;;;;;5069302;28;20056;-62
2021/04/23 04:47:55;;;;;;;13.73;4.53;;;;;;;;;;5072568;28;20045;-63
2021/04/23 04:50:42;;;;;;;9.68;3.80;;;;;;;;;;5072297;28;20044;-63
2021/04/23 04:53:27;;;;;;;19.13;4.50;;;;;;;;;;5072634;28;20044;-63
2021/04/23 04:56:14;;;;;;;19.55;4.53;;;;;;;;;;5070955;28;20044;-62
2021/04/23 04:59:00;;;;;;;12.52;5.40;;;;;;;;;;5072522;28;20048;-63
2021/04/23 05:01:48;;;;;;;10.30;4.00;;;;;;;;;;5068281;28;20067;-62
2021/04/23 05:04:34;;;;;;;20.08;6.47;;;;;;;;;;5050068;28;20041;-62
2021/04/23 05:07:19;;;;;;;12.55;4.13;;;;;;;;;;5050386;28;20506;-62
2021/04/23 05:10:05;;;;;;;12.02;3.28;;;;;;;;;;5050108;28;20051;-62
2021/04/23 05:12:51;;;;;;;12.90;3.90;;;;;;;;;;5050864;28;20037;-63
2021/04/23 05:15:37;;;;;;;15.68;5.40;;;;;;;;;;5052288;28;20552;-62
2021/04/23 05:18:22;;;;;;;10.55;4.68;;;;;;;;;;5050664;28;20052;-62
2021/04/23 05:21:07;;;;;;;8.63;4.05;;;;;;;;;;5051986;28;20075;-62
2021/04/23 05:23:53;;;;;;;12.35;4.22;;;;;;;;;;5051770;28;20048;-62
2021/04/23 05:26:38;;;;;;;26.85;5.57;;;;;;;;;;5061891;28;20044;-62
2021/04/23 05:29:23;;;;;;;38.88;5.85;;;;;;;;;;5071846;28;20159;-63
2021/04/23 05:32:09;;;;;;;15.10;4.88;;;;;;;;;;5072302;28;20051;-63
2021/04/23 05:34:54;;;;;;;13.23;4.20;;;;;;;;;;5072004;28;20490;-63
2021/04/23 05:37:40;;;;;;;19.70;4.55;;;;;;;;;;5066830;28;20048;-62
2021/04/23 05:40:32;;;;;;;19.58;4.55;;;;;;;;;;5071733;28;20078;-63
2021/04/23 05:43:18;;;;;;;13.98;3.60;;;;;;;;;;5072276;28;20052;-63
2021/04/23 05:46:03;;;;;;;17.10;4.13;;;;;;;;;;5062182;28;20072;-62
2021/04/23 05:48:48;;;;;;;16.75;3.97;;;;;;;;;;5071726;28;20426;-63
2021/04/23 05:51:34;;;;;;;16.40;3.72;;;;;;;;;;5066090;28;20045;-62
2021/04/23 05:54:19;;;;;;;10.73;3.30;;;;;;;;;;5071974;28;20045;-63
2021/04/23 05:57:05;;;;;;;11.52;3.38;;;;;;;;;;5074190;28;20653;-64
2021/04/23 05:59:50;;;;;;;14.43;4.18;;;;;;;;;;5075850;28;20080;-63
2021/04/23 06:02:35;;;;;;;16.42;3.75;;;;;;;;;;5075146;28;20399;-63
2021/04/23 06:05:22;;;;;;;12.40;3.92;;;;;;;;;;5074386;28;20040;-63
2021/04/23 06:08:08;;;;;;;11.32;3.53;;;;;;;;;;5074231;28;20048;-63
2021/04/23 06:10:54;;;;;;;9.30;3.30;;;;;;;;;;5073419;28;20070;-63
2021/04/23 06:13:39;;;;;;;9.48;3.00;;;;;;;;;;5075601;28;20043;-64
2021/04/23 06:16:25;;;;;;;10.68;3.90;;;;;;;;;;5075836;28;20063;-64
2021/04/23 06:19:11;;;;;;;11.65;3.40;;;;;;;;;;5075414;28;20553;-64
2021/04/23 06:21:56;;;;;;;12.77;3.47;;;;;;;;;;5070532;28;20226;-63
2021/04/23 06:24:42;;;;;;;7.70;2.60;;;;;;;;;;5075592;28;20044;-63
2021/04/23 06:27:27;;;;;;;12.82;2.97;;;;;;;;;;5075210;28;20493;-63
2021/04/23 06:30:14;;;;;;;12.35;3.05;;;;;;;;;;5072970;28;20057;-62
2021/04/23 06:33:00;;;;;;;13.43;3.83;;;;;;;;;;5075142;28;20548;-63
2021/04/23 06:35:46;;;;;;;13.30;3.53;;;;;;;;;;5075265;28;20044;-63
2021/04/23 06:38:30;;;;;;;17.25;5.28;;;;;;;;;;5071885;28;20053;-63
2021/04/23 06:41:16;;;;;;;13.88;4.25;;;;;;;;;;5074626;28;20616;-63
2021/04/23 06:44:01;;;;;;;14.90;4.07;;;;;;;;;;5071210;28;20063;-63
2021/04/23 06:46:47;;;;;;;11.93;3.55;;;;;;;;;;5074890;28;20048;-62
2021/04/23 06:49:32;;;;;;;11.15;3.63;;;;;;;;;;5074739;28;20053;-63
2021/04/23 06:52:18;;;;;;;10.90;3.58;;;;;;;;;;5074806;28;20048;-62
2021/04/23 06:55:03;;;;;;;9.75;3.22;;;;;;;;;;5073285;28;20071;-63
2021/04/23 06:57:49;;;;;;;12.93;3.97;;;;;;;;;;5074789;28;20435;-63
2021/04/23 07:00:36;;;;;;;10.63;2.80;;;;;;;;;;5066767;28;20137;-63
2021/04/23 07:03:21;;;;;;;15.23;5.00;;;;;;;;;;5074556;28;20041;-63
2021/04/23 07:06:07;;;;;;;12.10;3.70;;;;;;;;;;5074425;28;20037;-63
2021/04/23 07:08:52;;;;;;;14.18;4.15;;;;;;;;;;5073296;28;20131;-63
2021/04/23 07:11:37;;;;;;;10.00;3.47;;;;;;;;;;5067463;28;20068;-63
2021/04/23 07:14:23;;;;;;;10.18;3.58;;;;;;;;;;5053825;28;20045;-63
2021/04/23 07:17:11;;;;;;;10.25;4.47;;;;;;;;;;5053984;28;20052;-63
2021/04/23 07:19:56;;;;;;;12.02;4.05;;;;;;;;;;5051947;28;20048;-63
2021/04/23 07:22:42;;;;;;;13.38;4.82;;;;;;;;;;5065689;28;20076;-63
2021/04/23 07:25:27;;;;;;;15.52;4.15;;;;;;;;;;5074287;28;20080;-63
2021/04/23 07:28:12;;;;;;;11.93;3.58;;;;;;;;;;5074022;28;20044;-63
2021/04/23 07:30:57;;;;;;;12.02;4.03;;;;;;;;;;5071595;28;20045;-63
2021/04/23 07:33:43;;;;;;;12.75;4.50;;;;;;;;;;5034003;28;20037;-63
2021/04/23 07:36:28;;;;;;;12.45;4.30;;;;;;;;;;5033986;28;20079;-63
2021/04/23 07:39:14;;;;;;;13.32;4.82;;;;;;;;;;5033846;28;20136;-63
2021/04/23 07:42:00;;;;;;;9.52;3.70;;;;;;;;;;5045897;28;20049;-63
2021/04/23 07:44:46;;;;;;;22.55;5.03;;;;;;;;;;5072575;28;20052;-63
2021/04/23 07:47:31;;;;;;;8.80;3.75;;;;;;;;;;5073336;28;20453;-63
2021/04/23 07:50:17;;;;;;;9.48;4.35;;;;;;;;;;5073565;28;20087;-63
2021/04/23 07:53:02;;;;;;;11.07;4.38;;;;;;;;;;5071546;28;20052;-63
2021/04/23 07:55:48;;;;;;;11.57;4.43;;;;;;;;;;5073551;28;20507;-63
2021/04/23 07:58:33;;;;;;;12.07;4.50;;;;;;;;;;5073411;28;20037;-63
2021/04/23 08:01:19;;;;;;;6.93;4.32;;;;;;;;;;5080260;28;20036;-64
2021/04/23 08:04:04;;;;;;;7.10;3.50;;;;;;;;;;5071762;28;20053;-63
2021/04/23 08:06:50;;;;;;;8.20;3.75;;;;;;;;;;5073244;28;20040;-63
2021/04/23 08:09:36;;;;;;;7.25;3.50;;;;;;;;;;5073004;28;20522;-64
2021/04/23 08:12:22;;;;;;;8.60;3.92;;;;;;;;;;5071681;28;20121;-63
2021/04/23 08:15:08;;;;;;;9.82;4.15;;;;;;;;;;5073345;28;20213;-63
2021/04/23 08:17:57;;;;;;;7.18;4.10;;;;;;;;;;5073098;28;20094;-62
2021/04/23 08:20:42;;;;;;;9.75;3.72;;;;;;;;;;5072504;28;20049;-63
2021/04/23 08:23:28;;;;;;;8.05;4.07;;;;;;;;;;5071162;28;20054;-63
2021/04/23 08:26:14;;;;;;;6.93;4.25;;;;;;;;;;5071756;28;20044;-62
2021/04/23 08:28:59;;;;;;;9.32;4.00;;;;;;;;;;5072725;28;20056;-62
2021/04/23 08:31:44;;;;;;;9.50;4.43;;;;;;;;;;5072833;28;20482;-63
2021/04/23 08:34:29;;;;;;;7.30;3.97;;;;;;;;;;5071301;28;20045;-63
2021/04/23 08:37:15;;;;;;;7.07;4.07;;;;;;;;;;5073338;28;20055;-62
2021/04/23 08:40:00;;;;;;;7.72;4.72;;;;;;;;;;5072752;28;20403;-63
2021/04/23 08:42:46;;;;;;;8.15;3.75;;;;;;;;;;5072793;28;20410;-63
2021/04/23 08:45:32;;;;;;;12.32;4.30;;;;;;;;;;5060850;28;20499;-63
2021/04/23 08:48:17;;;;;;;5.20;3.75;;;;;;;;;;5042470;28;20042;-63
2021/04/23 08:51:02;;;;;;;8.98;3.78;;;;;;;;;;5032422;28;20045;-64
2021/04/23 08:53:48;;;;;;;9.00;4.13;;;;;;;;;;5032309;28;20111;-63
2021/04/23 08:56:33;;;;;;;8.43;3.92;;;;;;;;;;5050122;28;20045;-63
2021/04/23 08:59:18;;;;;;;6.43;3.80;;;;;;;;;;5072185;28;20055;-63
2021/04/23 09:02:03;;;;;;;5.82;3.70;;;;;;;;;;5072245;28;20568;-63
2021/04/23 09:04:49;;;;;;;9.02;4.40;;;;;;;;;;5070581;28;20068;-63
2021/04/23 09:07:35;;;;;;;8.77;4.15;;;;;;;;;;5072055;28;20452;-63
2021/04/23 09:10:20;;;;;;;9.23;4.63;;;;;;;;;;5071884;28;20064;-63
2021/04/23 09:13:06;;;;;;;6.60;3.60;;;;;;;;;;5072138;28;20052;-64
2021/04/23 09:15:51;;;;;;;7.93;3.55;;;;;;;;;;5070676;28;20052;-62
2021/04/23 09:18:36;;;;;;;5.82;3.63;;;;;;;;;;5057179;28;20053;-63
2021/04/23 09:21:21;;;;;;;6.40;3.53;;;;;;;;;;5071610;28;20499;-63
2021/04/23 09:24:06;;;;;;;15.07;4.22;;;;;;;;;;5052102;28;20973;-63
2021/04/23 09:26:52;;;;;;;8.63;3.72;;;;;;;;;;5045580;28;20045;-62
2021/04/23 09:29:37;;;;;;;10.27;3.85;;;;;;;;;;5050343;28;20474;-63
2021/04/23 09:32:29;;;;;;;8.00;3.33;;;;;;;;;;5034702;28;20068;-62
2021/04/23 09:35:16;;;;;;;9.05;3.67;;;;;;;;;;5051579;28;20039;-63
2021/04/23 09:38:01;;;;;;;19.75;5.00;;;;;;;;;;5051390;28;20129;-62
2021/04/23 09:40:47;;;;;;;9.75;3.60;;;;;;;;;;5039982;28;20040;-64
2021/04/23 09:43:38;;;;;;;6.80;3.65;;;;;;;;;;5057173;28;20041;-65
2021/04/23 09:46:32;;;;;;;9.90;3.42;;;;;;;;;;5035179;28;20048;-64
2021/04/23 09:49:18;;;;;;;3.95;3.30;;;;;;;;;;5051591;28;20041;-63
2021/04/23 09:52:05;;;;;;;7.20;3.70;;;;;;;;;;5050295;28;20124;-63
2021/04/23 09:54:51;;;;;;;6.97;3.65;;;;;;;;;;5051596;28;20060;-64
2021/04/23 09:57:37;;;;;;;6.43;3.53;;;;;;;;;;5051414;28;20072;-64
2021/04/23 10:00:26;;;;;;;8.40;4.10;;;;;;;;;;5034854;28;20049;-64
2021/04/23 10:03:12;;;;;;;6.07;3.63;;;;;;;;;;5041749;28;20131;-64
2021/04/23 10:05:57;;;;;;;8.82;3.80;;;;;;;;;;5052638;28;20551;-64
2021/04/23 10:08:43;;;;;;;14.02;4.43;;;;;;;;;;5051688;28;20041;-64
2021/04/23 10:11:41;;;;;;;6.28;3.65;;;;;;;;;;5054184;28;20047;-64
2021/04/23 10:14:26;;;;;;;8.18;3.38;;;;;;;;;;5035738;28;20407;-63
2021/04/23 10:17:21;;;;;;;6.35;3.90;;;;;;;;;;5051800;28;20068;-63
2021/04/23 10:20:07;;;;;;;5.95;3.15;;;;;;;;;;5051685;28;20045;-64
2021/04/23 10:22:53;;;;;;;8.80;4.43;;;;;;;;;;5039454;28;20064;-63
2021/04/23 10:25:38;;;;;;;10.00;4.97;;;;;;;;;;5036488;28;20619;-64
2021/04/23 10:28:24;;;;;;;13.95;5.60;;;;;;;;;;5035188;28;20037;-64
2021/04/23 10:31:09;;;;;;;7.55;4.45;;;;;;;;;;5043620;28;20049;-65
2021/04/23 10:33:54;;;;;;;9.27;4.57;;;;;;;;;;5035724;28;20606;-64
2021/04/23 10:36:40;;;;;;;5.63;4.10;;;;;;;;;;5030605;28;20048;-63
2021/04/23 10:39:25;;;;;;;7.97;4.03;;;;;;;;;;5051310;28;20063;-64
2021/04/23 10:42:29;;;;;;;6.80;3.92;;;;;;;;;;5051408;28;20048;-64
2021/04/23 10:45:21;;;;;;;6.63;3.97;;;;;;;;;;5054661;28;20448;-64
2021/04/23 10:48:15;;;;;;;11.52;5.32;;;;;;;;;;5054391;28;20526;-64
2021/04/23 10:51:08;;;;;;;7.88;3.85;;;;;;;;;;5058452;28;20510;-64
2021/04/23 10:53:54;;;;;;;7.18;4.65;;;;;;;;;;5058872;28;20049;-64
2021/04/23 10:56:40;;;;;;;8.75;5.28;;;;;;;;;;5040791;28;20118;-64
2021/04/23 10:59:32;;;;;;;6.68;4.28;;;;;;;;;;5053028;28;20053;-64
2021/04/23 11:02:17;;;;;;;;;;;;;;;;;;5067350;28;20102;-64
2021/04/23 11:05:03;;;;;;;6.70;3.78;;;;;;;;;;5054674;28;20421;-64
2021/04/23 11:08:06;;;;;;;5.05;3.83;;;;;;;;;;5054415;28;20476;-64
2021/04/23 11:11:02;;;;;;;8.20;4.20;;;;;;;;;;5046730;28;20086;-64
2021/04/23 11:13:47;;;;;;;7.25;3.80;;;;;;;;;;5056706;28;20049;-65
2021/04/23 11:16:33;;;;;;;4.75;3.40;;;;;;;;;;5039294;28;20049;-64
2021/04/23 11:19:21;;;;;;;9.00;4.20;;;;;;;;;;5054053;28;20049;-64
2021/04/23 11:22:07;;;;;;;6.80;3.60;;;;;;;;;;5056101;28;20053;-64
2021/04/23 11:25:16;;;;;;;4.60;2.88;;;;;;;;;;5066501;28;20036;-64
2021/04/23 11:28:07;;;;;;;6.40;3.20;;;;;;;;;;5053695;28;20052;-64
2021/04/23 11:30:55;;;;;;;6.95;3.65;;;;;;;;;;5053783;28;20045;-64
2021/04/23 11:33:48;;;;;;;5.55;3.35;;;;;;;;;;5064179;28;20080;-64
2021/04/23 11:36:36;;;;;;;7.82;4.07;;;;;;;;;;5041807;28;20049;-63
2021/04/23 11:39:21;;;;;;;5.40;3.80;;;;;;;;;;5053375;28;20132;-64
2021/04/23 11:42:11;;;;;;;6.35;3.65;;;;;;;;;;5038654;28;20052;-63
2021/04/23 11:44:57;;;;;;;11.93;4.03;;;;;;;;;;5062945;28;20048;-64
2021/04/23 11:47:49;;;;;;;4.25;3.03;;;;;;;;;;5053508;28;20041;-64
2021/04/23 11:50:38;;;;;;;6.88;3.33;;;;;;;;;;5038482;28;20041;-64
2021/04/23 11:53:23;;;;;;;6.00;3.58;;;;;;;;;;5054809;28;20491;-64
2021/04/23 11:56:08;;;;;;;9.10;3.67;;;;;;;;;;5073748;28;20040;-64
2021/04/23 11:58:54;;;;;;;4.90;2.58;;;;;;;;;;5073502;28;20041;-64
2021/04/23 12:01:39;;;;;;;3.42;2.22;;;;;;;;;;5073185;28;20458;-64
2021/04/23 12:04:40;;;;;;;7.43;3.05;;;;;;;;;;5052917;28;20141;-64
2021/04/23 12:07:25;;;;;;;4.10;2.95;;;;;;;;;;5068710;28;20048;-64
2021/04/23 12:10:11;;;;;;;4.95;2.45;;;;;;;;;;5047805;28;20507;-63
2021/04/23 12:12:56;;;;;;;5.13;3.65;;;;;;;;;;5033358;28;20041;-64
2021/04/23 12:15:42;;;;;;;4.60;2.90;;;;;;;;;;5063926;28;20040;-63
2021/04/23 12:18:28;;;;;;;4.10;2.65;;;;;;;;;;5072900;28;20048;-64
2021/04/23 12:21:13;;;;;;;8.77;3.58;;;;;;;;;;5072937;28;20496;-63
2021/04/23 12:23:59;;;;;;;5.50;3.88;;;;;;;;;;5073034;28;20056;-64
2021/04/23 12:26:47;;;;;;;6.57;3.47;;;;;;;;;;5072571;28;20081;-63
2021/04/23 12:29:32;;;;;;;4.85;2.90;;;;;;;;;;5114156;22;20044;-64
2021/04/23 12:32:17;;;;;;;8.88;3.45;;;;;;;;;;5072829;28;20055;-64
2021/04/23 12:35:03;;;;;;;5.35;2.70;;;;;;;;;;5073043;28;20490;-64
2021/04/23 12:37:48;;;;;;;7.07;2.75;;;;;;;;;;5061061;28;20044;-64
2021/04/23 12:40:35;;;;;;;5.30;3.38;;;;;;;;;;5052451;28;20132;-64
2021/04/23 12:43:23;;;;;;;5.57;3.00;;;;;;;;;;5051196;28;20049;-62
2021/04/23 12:46:08;;;;;;;4.50;3.00;;;;;;;;;;5056937;28;20097;-61
2021/04/23 12:48:54;;;;;;;4.13;2.72;;;;;;;;;;5072372;28;20106;-61
2021/04/23 12:51:44;;;;;;;5.60;2.90;;;;;;;;;;5031908;28;20057;-62
2021/04/23 12:54:32;;;;;;;4.70;2.40;;;;;;;;;;5047754;28;20443;-62
2021/04/23 12:57:18;;;;;;;4.32;3.20;;;;;;;;;;5051814;28;20268;-62
2021/04/23 13:00:12;;;;;;;9.60;4.05;;;;;;;;;;5049201;28;20076;-62
2021/04/23 13:02:58;;;;;;;10.95;3.38;;;;;;;;;;5042388;28;20049;-62
2021/04/23 13:05:43;;;;;;;7.82;3.40;;;;;;;;;;5029366;28;20089;-62
2021/04/23 13:08:29;;;;;;;5.28;2.67;;;;;;;;;;5030234;28;20049;-62
2021/04/23 13:11:14;;;;;;;6.07;2.88;;;;;;;;;;5042642;28;20041;-62
2021/04/23 13:14:11;;;;;;;3.63;2.85;;;;;;;;;;5035485;28;20049;-62
2021/04/23 13:16:57;;;;;;;6.43;3.50;;;;;;;;;;5043541;28;20047;-62
2021/04/23 13:19:46;;;;;;;6.40;3.08;;;;;;;;;;5051859;28;20506;-62
2021/04/23 13:22:32;;;;;;;7.13;3.60;;;;;;;;;;5050354;28;20045;-62
2021/04/23 13:25:19;;;;;;;15.70;4.32;;;;;;;;;;5031205;28;20057;-62
2021/04/23 13:28:10;;;;;;;4.88;2.65;;;;;;;;;;5052516;28;20040;-62
2021/04/23 13:30:58;;;;;;;5.43;2.27;;;;;;;;;;5066581;28;20045;-62
2021/04/23 13:33:44;;;;;;;4.45;2.25;;;;;;;;;;5050169;28;20052;-62
2021/04/23 13:36:29;;;;;;;4.05;2.70;;;;;;;;;;5049709;28;20037;-62
2021/04/23 13:39:14;;;;;;;7.70;2.53;;;;;;;;;;5058363;28;20037;-62
2021/04/23 13:41:59;;;;;;;4.78;2.78;;;;;;;;;;5041246;28;20084;-62
2021/04/23 13:44:45;;;;;;;4.03;2.78;;;;;;;;;;5048902;28;20041;-62
2021/04/23 13:47:37;;;;;;;7.95;2.90;;;;;;;;;;5049570;28;20518;-62
2021/04/23 13:50:23;;;;;;;5.50;3.30;;;;;;;;;;5068373;28;20041;-62
2021/04/23 13:53:08;;;;;;;5.93;3.50;;;;;;;;;;5048575;28;20491;-62
2021/04/23 13:56:03;;;;;;;4.75;2.80;;;;;;;;;;5041598;28;20045;-62
2021/04/23 13:58:55;;;;;;;5.40;3.47;;;;;;;;;;5057468;28;20491;-62
2021/04/23 14:01:54;;;;;;;6.32;2.55;;;;;;;;;;5052801;28;20052;-62
2021/04/23 14:04:39;;;;;;;3.13;2.85;;;;;;;;;;5030663;28;20108;-62
2021/04/23 14:07:25;;;;;;;6.00;3.53;;;;;;;;;;5030715;28;20049;-62
2021/04/23 14:10:11;;;;;;;7.63;3.50;;;;;;;;;;5062769;28;20136;-61
2021/04/23 14:12:57;;;;;;;4.78;3.47;;;;;;;;;;5049581;28;20052;-63
2021/04/23 14:15:42;;;;;;;6.90;3.65;;;;;;;;;;5049737;28;20110;-63
2021/04/23 14:18:27;;;;;;;4.97;3.33;;;;;;;;;;5051138;28;20499;-63
2021/04/23 14:21:13;;;;;;;4.40;3.95;;;;;;;;;;5046688;28;20045;-63
2021/04/23 14:23:58;;;;;;;7.53;4.25;;;;;;;;;;5041032;28;20040;-63
2021/04/23 14:26:44;;;;;;;6.68;4.68;;;;;;;;;;5053399;28;20040;-62
2021/04/23 14:29:29;;;;;;;5.10;3.70;;;;;;;;;;5056384;28;20115;-63
2021/04/23 14:32:14;;;;;;;4.30;2.60;;;;;;;;;;5061595;28;20049;-62
2021/04/23 14:35:00;;;;;;;6.50;3.50;;;;;;;;;;5053253;28;20056;-63
2021/04/23 14:37:45;;;;;;;5.90;3.58;;;;;;;;;;5038069;28;20049;-63
2021/04/23 14:40:30;;;;;;;8.27;2.90;;;;;;;;;;5063242;28;20513;-63
2021/04/23 14:43:16;;;;;;;6.68;4.10;;;;;;;;;;5070933;28;20048;-63
2021/04/23 14:46:01;;;;;;;6.30;4.28;;;;;;;;;;5059374;28;20445;-63
2021/04/23 14:48:47;;;;;;;4.88;3.30;;;;;;;;;;5073006;28;20053;-63
2021/04/23 14:51:32;;;;;;;5.57;3.42;;;;;;;;;;5037453;28;20048;-62
2021/04/23 14:54:17;;;;;;;13.25;4.25;;;;;;;;;;5033826;28;20041;-62
2021/04/23 14:57:03;;;;;;;6.10;3.40;;;;;;;;;;5053963;28;20131;-62
2021/04/23 14:59:48;;;;;;;6.97;3.38;;;;;;;;;;5049433;28;20120;-62
2021/04/23 15:02:33;;;;;;;5.57;3.58;;;;;;;;;;5037642;28;20076;-62
2021/04/23 15:05:19;;;;;;;9.10;4.30;;;;;;;;;;5047403;28;20045;-62
2021/04/23 15:08:04;;;;;;;4.60;2.50;;;;;;;;;;5051434;28;20136;-62
2021/04/23 15:10:50;;;;;;;4.70;2.95;;;;;;;;;;5032597;28;20098;-62
2021/04/23 15:13:35;;;;;;;4.97;2.58;;;;;;;;;;5032677;28;20041;-63
2021/04/23 15:16:21;;;;;;;9.18;3.05;;;;;;;;;;5032253;28;20053;-62
2021/04/23 15:19:10;;;;;;;4.40;3.00;;;;;;;;;;5059890;28;20045;-62
2021/04/23 15:21:56;;;;;;;5.22;3.10;;;;;;;;;;5052082;28;20049;-62
2021/04/23 15:24:41;;;;;;;6.05;2.60;;;;;;;;;;5051982;28;20072;-62
2021/04/23 15:27:26;;;;;;;4.93;2.80;;;;;;;;;;5047073;28;20048;-62
2021/04/23 15:30:21;;;;;;;3.80;2.72;;;;;;;;;;5071163;28;20436;-62
2021/04/23 15:33:08;;;;;;;4.50;3.45;;;;;;;;;;5052997;28;20045;-63
2021/04/23 15:35:53;;;;;;;4.07;2.50;;;;;;;;;;5040754;28;20037;-62
2021/04/23 15:38:38;;;;;;;3.13;1.95;;;;;;;;;;5063728;28;20131;-62
2021/04/23 15:41:24;;;;;;;4.07;3.00;;;;;;;;;;5068692;28;20131;-63
2021/04/23 15:44:09;;;;;;;4.40;2.45;;;;;;;;;;5051930;28;20080;-63
2021/04/23 15:46:54;;;;;;;5.20;2.85;;;;;;;;;;5051831;28;20037;-63
2021/04/23 15:49:40;;;;;;;4.47;3.00;;;;;;;;;;5068012;28;20111;-63
2021/04/23 15:52:25;;;;;;;3.80;2.40;;;;;;;;;;5063392;28;20061;-63
2021/04/23 15:55:11;;;;;;;6.07;2.97;;;;;;;;;;5038791;28;20277;-63
2021/04/23 15:57:56;;;;;;;5.68;2.80;;;;;;;;;;5019636;28;20052;-63
2021/04/23 16:00:41;;;;;;;4.28;2.75;;;;;;;;;;5071534;28;20418;-63
2021/04/23 16:03:27;;;;;;;3.45;2.53;;;;;;;;;;5057916;28;20037;-63
2021/04/23 16:06:12;;;;;;;3.17;2.45;;;;;;;;;;5036665;28;20112;-63
2021/04/23 16:08:57;;;;;;;5.43;2.63;;;;;;;;;;5053134;28;20040;-63
2021/04/23 16:11:42;;;;;;;4.25;2.42;;;;;;;;;;5053911;28;20064;-63
2021/04/23 16:14:28;;;;;;;4.93;2.53;;;;;;;;;;5051408;28;20052;-62
2021/04/23 16:17:14;;;;;;;5.50;2.78;;;;;;;;;;5032117;28;20038;-63
2021/04/23 16:19:59;;;;;;;4.85;2.50;;;;;;;;;;5057103;28;20045;-62
2021/04/23 16:22:44;;;;;;;7.40;2.90;;;;;;;;;;5017581;28;20042;-63
2021/04/23 16:25:33;;;;;;;5.38;2.70;;;;;;;;;;5051010;28;20041;-62
2021/04/23 16:28:18;;;;;;;5.25;2.95;;;;;;;;;;5046855;28;20045;-63